Time;durP1;ratioP1;P1;durP2;ratioP2;P2;SDS_P1;SDS_P2;PMS_P1;PMS_P2;Temp;Humidity;BMP_temperature;BMP_pressure;BME280_temperature;BME280_humidity;BME280_pressure;Samples;Min_cycle;Max_cycle;Signal;HPM_P1;HPM_P2
2021/01/15 00:01:42;;;;;;;8.70;6.50;;;-1.60;6.10;;;;;;4923911;29;20966;-93
2021/01/15 00:04:13;;;;;;;11.90;6.90;;;-1.40;1.00;;;;;;4923283;29;20444;-93
2021/01/15 00:07:01;;;;;;;8.77;6.67;;;-1.30;1.00;;;;;;4923348;29;20819;-93
2021/01/15 00:09:34;;;;;;;8.27;6.80;;;-1.20;99.90;;;;;;4923857;29;20555;-93
2021/01/15 00:14:49;;;;;;;7.40;6.47;;;-1.00;99.90;;;;;;4922831;29;20460;-93
2021/01/15 00:17:29;;;;;;;7.17;5.70;;;-1.00;16.90;;;;;;4922815;29;20532;-93
2021/01/15 00:20:19;;;;;;;10.40;7.37;;;-1.00;1.00;;;;;;4923381;29;20932;-93
2021/01/15 00:25:33;;;;;;;9.83;6.00;;;-0.90;99.90;;;;;;4920866;29;20428;-93
2021/01/15 00:28:10;;;;;;;7.60;6.10;;;-0.80;99.90;;;;;;4923490;29;20551;-91
2021/01/15 00:30:50;;;;;;;7.83;6.17;;;-0.70;1.00;;;;;;4923382;29;20446;-91
2021/01/15 00:33:32;;;;;;;8.80;6.97;;;-0.60;99.90;;;;;;4906163;29;20442;-90
2021/01/15 00:36:09;;;;;;;8.90;6.77;;;-0.60;99.90;;;;;;4923238;29;20823;-91
2021/01/15 00:38:59;;;;;;;11.03;7.37;;;-0.50;99.90;;;;;;4922065;29;20505;-91
2021/01/15 00:41:31;;;;;;;7.63;6.80;;;-0.60;1.00;;;;;;4922155;29;20772;-90
2021/01/15 00:44:02;;;;;;;7.30;6.10;;;-0.60;1.00;;;;;;4922144;29;20483;-90
2021/01/15 00:46:35;;;;;;;11.13;8.77;;;-0.60;1.00;;;;;;4922800;29;20483;-90
2021/01/15 00:49:04;;;;;;;13.53;8.30;;;-0.50;99.90;;;;;;4921636;29;20926;-91
2021/01/15 00:54:20;;;;;;;12.13;8.83;;;-0.40;99.90;;;;;;4922176;29;20927;-90
2021/01/15 00:56:58;;;;;;;12.23;8.50;;;-0.40;99.90;;;;;;4905622;29;20487;-90
2021/01/15 00:59:28;;;;;;;12.40;8.73;;;-0.40;99.90;;;;;;4922444;29;20918;-91
2021/01/15 01:04:54;;;;;;;12.37;9.20;;;-0.30;99.90;;;;;;4922018;29;20768;-90
2021/01/15 01:07:30;;;;;;;14.43;10.57;;;-0.20;99.90;;;;;;4921854;29;20465;-91
2021/01/15 01:12:46;;;;;;;15.40;12.00;;;-0.20;99.90;;;;;;4921456;29;20493;-90
2021/01/15 01:15:16;;;;;;;21.67;14.07;;;-0.10;99.90;;;;;;4921746;29;20476;-91
2021/01/15 01:17:45;;;;;;;26.70;15.03;;;-0.10;99.90;;;;;;4922397;29;20777;-90
2021/01/15 01:20:15;;;;;;;21.90;13.90;;;-0.10;1.00;;;;;;4922250;29;20480;-90
2021/01/15 01:22:49;;;;;;;20.97;14.80;;;0.00;1.00;;;;;;4921164;29;20474;-90
2021/01/15 01:25:19;;;;;;;18.83;14.10;;;0.00;1.00;;;;;;4921457;29;20518;-90
2021/01/15 01:27:54;;;;;;;21.77;15.10;;;0.00;1.00;;;;;;4904997;29;20461;-90
2021/01/15 01:30:26;;;;;;;25.80;15.83;;;0.00;1.00;;;;;;4921841;29;20496;-90
2021/01/15 01:32:55;;;;;;;25.30;14.87;;;0.10;1.00;;;;;;4921559;29;20481;-90
2021/01/15 01:35:25;;;;;;;22.17;15.33;;;0.10;11.70;;;;;;4905028;29;20464;-90
2021/01/15 01:37:54;;;;;;;18.83;13.40;;;0.10;32.90;;;;;;4921142;29;20492;-90
2021/01/15 01:40:28;;;;;;;20.77;14.70;;;0.10;52.40;;;;;;4904383;29;20473;-90
2021/01/15 01:42:56;;;;;;;23.33;16.00;;;0.10;73.10;;;;;;4922554;29;20484;-90
2021/01/15 01:45:24;;;;;;;19.20;14.00;;;0.20;62.50;;;;;;4921256;29;20476;-90
2021/01/15 01:47:53;;;;;;;19.50;13.13;;;0.10;17.40;;;;;;4921605;29;20495;-90
2021/01/15 01:50:22;;;;;;;20.40;13.43;;;0.10;1.00;;;;;;4901298;29;20501;-90
2021/01/15 01:52:50;;;;;;;19.60;14.80;;;0.10;1.00;;;;;;4885775;29;20472;-90
2021/01/15 01:55:20;;;;;;;19.37;12.83;;;0.20;1.00;;;;;;4902593;29;20449;-90
2021/01/15 01:57:52;;;;;;;21.70;13.50;;;0.20;1.00;;;;;;4885642;29;20570;-90
2021/01/15 02:00:20;;;;;;;20.20;12.43;;;0.10;1.00;;;;;;4902828;29;20859;-90
2021/01/15 02:02:47;;;;;;;15.87;11.40;;;0.10;1.00;;;;;;4902022;29;20482;-90
2021/01/15 02:05:16;;;;;;;18.33;13.00;;;0.10;99.90;;;;;;4902127;29;20465;-90
2021/01/15 02:07:46;;;;;;;19.70;13.17;;;0.10;99.90;;;;;;4902727;29;20470;-90
2021/01/15 02:10:19;;;;;;;15.83;11.37;;;0.10;99.90;;;;;;4902140;29;20462;-90
2021/01/15 02:12:59;;;;;;;15.00;11.97;;;0.20;40.90;;;;;;4902594;29;20474;-90
2021/01/15 02:15:37;;;;;;;16.33;10.57;;;0.20;99.90;;;;;;4902411;29;20897;-90
2021/01/15 02:18:10;;;;;;;13.60;10.77;;;0.20;80.00;;;;;;4902531;29;20500;-90
2021/01/15 02:21:22;;;;;;;14.73;9.97;;;0.20;1.00;;;;;;4902219;29;20474;-90
2021/01/15 02:23:51;;;;;;;13.83;10.73;;;0.10;1.00;;;;;;4885339;29;20764;-90
2021/01/15 02:26:49;;;;;;;12.90;9.67;;;0.10;1.00;;;;;;4901452;29;20907;-90
2021/01/15 02:29:20;;;;;;;15.40;12.27;;;0.20;99.90;;;;;;4877978;29;20473;-90
2021/01/15 02:32:26;;;;;;;13.27;10.20;;;0.20;1.00;;;;;;4885835;29;20459;-90
2021/01/15 02:35:28;;;;;;;15.60;10.17;;;0.10;99.90;;;;;;4904442;29;20472;-90
2021/01/15 02:38:14;;;;;;;12.93;9.53;;;0.10;99.90;;;;;;4881963;29;20504;-90
2021/01/15 02:40:50;;;;;;;10.50;8.63;;;0.10;99.90;;;;;;4906425;29;20480;-90
2021/01/15 02:43:23;;;;;;;14.47;9.80;;;0.10;99.90;;;;;;4905916;29;20469;-90
2021/01/15 02:45:52;;;;;;;11.57;9.50;;;0.10;1.00;;;;;;4905766;29;20497;-90
2021/01/15 02:48:22;;;;;;;12.20;9.50;;;0.10;1.00;;;;;;4906293;29;20781;-90
2021/01/15 02:50:49;;;;;;;10.97;9.17;;;0.10;1.00;;;;;;4924720;29;20481;-90
2021/01/15 02:53:19;;;;;;;12.50;9.37;;;0.10;1.00;;;;;;4924745;29;20477;-90
2021/01/15 02:55:47;;;;;;;13.33;10.20;;;0.10;1.00;;;;;;4924899;29;20482;-90
2021/01/15 02:58:15;;;;;;;14.53;10.00;;;0.20;1.00;;;;;;4924810;29;20942;-90
2021/01/15 03:00:43;;;;;;;12.50;9.30;;;0.30;99.90;;;;;;4923379;29;20562;-90
2021/01/15 03:03:18;;;;;;;11.67;8.73;;;0.10;99.90;;;;;;4924498;29;20787;-90
2021/01/15 03:05:49;;;;;;;15.07;10.57;;;0.20;99.90;;;;;;4924744;29;20451;-90
2021/01/15 03:08:22;;;;;;;11.17;9.50;;;0.10;99.90;;;;;;4924239;29;20479;-90
2021/01/15 03:10:51;;;;;;;12.10;9.70;;;0.10;99.90;;;;;;4923796;29;20483;-90
2021/01/15 03:13:19;;;;;;;12.90;10.03;;;0.10;99.90;;;;;;4924606;29;20513;-90
2021/01/15 03:15:48;;;;;;;13.47;9.50;;;0.10;99.90;;;;;;4924179;29;20802;-90
2021/01/15 03:18:16;;;;;;;14.40;10.73;;;0.10;99.90;;;;;;4924212;29;20497;-90
2021/01/15 03:20:43;;;;;;;11.87;9.70;;;0.10;99.90;;;;;;4924023;29;20458;-90
2021/01/15 03:23:11;;;;;;;13.27;10.40;;;0.10;99.90;;;;;;4924178;29;20465;-90
2021/01/15 03:25:41;;;;;;;13.10;10.60;;;0.20;99.90;;;;;;4898731;29;20887;-90
2021/01/15 03:28:08;;;;;;;13.00;10.60;;;0.20;99.90;;;;;;4905393;29;20481;-90
2021/01/15 03:30:36;;;;;;;11.23;8.57;;;0.10;99.90;;;;;;4905543;29;20561;-90
2021/01/15 03:33:06;;;;;;;11.90;9.50;;;0.10;99.90;;;;;;4905718;29;20502;-90
2021/01/15 03:35:34;;;;;;;13.20;9.90;;;0.10;99.90;;;;;;4905032;29;20477;-90
2021/01/15 03:38:04;;;;;;;12.83;10.10;;;0.10;99.90;;;;;;4905287;29;20498;-90
2021/01/15 03:40:33;;;;;;;12.00;9.60;;;0.10;99.90;;;;;;4888200;29;20466;-90
2021/01/15 03:43:02;;;;;;;11.83;10.20;;;0.10;99.90;;;;;;4904682;29;20470;-90
2021/01/15 03:48:21;;;;;;;13.20;9.63;;;0.10;99.90;;;;;;4904935;29;20459;-90
2021/01/15 03:53:47;;;;;;;17.30;9.60;;;0.10;99.90;;;;;;4901138;29;20474;-90
2021/01/15 03:56:19;;;;;;;12.97;10.37;;;0.10;99.90;;;;;;4904529;29;20481;-90
2021/01/15 03:58:50;;;;;;;13.27;10.00;;;0.20;99.90;;;;;;4904007;29;20507;-90
2021/01/15 04:01:19;;;;;;;15.17;8.53;;;0.20;99.90;;;;;;4904156;29;20999;-90
2021/01/15 04:03:47;;;;;;;13.90;11.30;;;0.20;99.90;;;;;;4904761;29;20475;-90
2021/01/15 04:06:15;;;;;;;12.80;10.50;;;0.20;99.90;;;;;;4887649;29;20633;-90
2021/01/15 04:08:42;;;;;;;14.23;10.33;;;0.20;99.90;;;;;;4904327;29;20530;-90
2021/01/15 04:11:09;;;;;;;11.60;10.10;;;0.20;99.90;;;;;;4886787;29;20466;-90
2021/01/15 04:13:37;;;;;;;14.47;10.77;;;0.10;99.90;;;;;;4903858;29;20871;-90
2021/01/15 04:16:06;;;;;;;12.13;10.67;;;0.20;99.90;;;;;;4904214;29;20478;-90
2021/01/15 04:18:34;;;;;;;14.03;11.17;;;0.10;99.90;;;;;;4902756;29;20521;-90
2021/01/15 04:21:05;;;;;;;14.10;11.40;;;0.20;99.90;;;;;;4904411;29;20462;-90
2021/01/15 04:23:34;;;;;;;14.60;10.30;;;0.20;99.90;;;;;;4904577;29;20529;-90
2021/01/15 04:26:01;;;;;;;15.53;11.23;;;0.20;99.90;;;;;;4914611;29;20462;-90
2021/01/15 04:28:29;;;;;;;13.50;11.07;;;0.20;99.90;;;;;;4922791;29;20459;-90
2021/01/15 04:30:57;;;;;;;14.20;11.53;;;0.20;99.90;;;;;;4923296;29;20484;-90
2021/01/15 04:33:26;;;;;;;18.97;12.80;;;0.30;99.90;;;;;;4922643;29;20481;-90
2021/01/15 04:35:53;;;;;;;16.57;11.43;;;0.20;1.00;;;;;;4923129;29;20942;-90
2021/01/15 04:38:23;;;;;;;13.63;11.77;;;0.20;1.00;;;;;;4905983;29;21030;-90
2021/01/15 04:40:50;;;;;;;17.40;12.63;;;0.20;1.00;;;;;;4922682;29;20509;-90
2021/01/15 04:43:20;;;;;;;17.60;13.10;;;0.20;71.90;;;;;;4923051;29;20777;-90
2021/01/15 04:45:48;;;;;;;20.00;13.40;;;0.20;99.90;;;;;;4922083;29;20481;-90
2021/01/15 04:48:19;;;;;;;17.47;13.43;;;0.20;99.90;;;;;;4921880;29;20465;-90
2021/01/15 04:50:49;;;;;;;16.37;13.90;;;0.30;1.00;;;;;;4922376;29;20512;-90
2021/01/15 04:53:20;;;;;;;21.23;15.07;;;0.20;99.90;;;;;;4921971;29;20560;-90
2021/01/15 04:55:49;;;;;;;20.67;15.13;;;0.30;99.90;;;;;;4922601;29;20492;-90
2021/01/15 04:58:17;;;;;;;21.57;15.13;;;0.30;1.00;;;;;;4922175;29;20806;-90
2021/01/15 05:00:47;;;;;;;17.07;13.37;;;0.30;99.90;;;;;;4921776;29;20563;-90
2021/01/15 05:03:15;;;;;;;20.10;14.80;;;0.30;1.00;;;;;;4922312;29;20487;-90
2021/01/15 05:05:44;;;;;;;20.63;14.87;;;0.30;99.90;;;;;;4905423;29;20469;-90
2021/01/15 05:08:14;;;;;;;25.80;16.57;;;0.30;1.00;;;;;;4922482;29;20469;-90
2021/01/15 05:10:44;;;;;;;21.30;17.00;;;0.30;99.90;;;;;;4922053;29;20934;-90
2021/01/15 05:13:13;;;;;;;22.80;17.30;;;0.30;99.90;;;;;;4922019;29;20477;-90
2021/01/15 05:15:42;;;;;;;21.97;16.83;;;0.30;1.00;;;;;;4922384;29;20509;-90
2021/01/15 05:18:11;;;;;;;21.70;17.30;;;0.30;99.90;;;;;;4904824;29;20575;-90
2021/01/15 05:20:38;;;;;;;23.37;18.07;;;0.30;1.00;;;;;;4921839;29;20476;-90
2021/01/15 05:23:08;;;;;;;24.17;17.83;;;0.30;66.50;;;;;;4921809;29;20474;-90
2021/01/15 05:25:41;;;;;;;25.60;18.40;;;0.20;99.90;;;;;;4921967;29;20751;-91
2021/01/15 05:28:09;;;;;;;24.17;17.27;;;0.20;99.90;;;;;;4921780;29;20894;-90
2021/01/15 05:30:38;;;;;;;23.40;18.73;;;0.30;1.00;;;;;;4921893;29;20473;-90
2021/01/15 05:33:12;;;;;;;25.50;18.80;;;0.20;1.00;;;;;;4922022;29;20532;-90
2021/01/15 05:35:47;;;;;;;24.70;18.10;;;0.30;1.00;;;;;;4921794;29;20796;-90
2021/01/15 05:38:16;;;;;;;27.43;18.83;;;0.20;1.00;;;;;;4921386;29;20500;-90
2021/01/15 05:40:47;;;;;;;26.60;20.60;;;0.20;1.00;;;;;;4921473;29;20481;-90
2021/01/15 05:43:23;;;;;;;25.80;18.83;;;0.20;1.00;;;;;;4922060;29;20480;-90
2021/01/15 05:46:06;;;;;;;26.83;18.63;;;0.20;1.00;;;;;;4921594;29;20809;-90
2021/01/15 05:48:34;;;;;;;34.27;20.43;;;0.30;1.00;;;;;;4904645;29;20556;-90
2021/01/15 05:51:01;;;;;;;28.93;21.20;;;0.30;1.00;;;;;;4921245;29;20511;-90
2021/01/15 05:53:41;;;;;;;29.17;20.73;;;0.30;1.00;;;;;;4921203;29;20513;-90
2021/01/15 05:56:10;;;;;;;26.43;19.77;;;0.30;1.00;;;;;;4921457;29;20478;-90
2021/01/15 05:58:37;;;;;;;29.20;20.20;;;0.30;1.00;;;;;;4921922;29;20787;-90
2021/01/15 06:01:06;;;;;;;31.47;20.93;;;0.30;1.00;;;;;;4921754;29;20485;-90
2021/01/15 06:03:34;;;;;;;30.70;20.80;;;0.30;1.00;;;;;;4921680;29;20505;-90
2021/01/15 06:06:02;;;;;;;31.53;22.40;;;0.30;1.00;;;;;;4904366;29;20569;-90
2021/01/15 06:08:43;;;;;;;26.53;19.43;;;0.30;1.00;;;;;;4921079;29;20524;-90
2021/01/15 06:11:23;;;;;;;30.57;20.27;;;0.30;1.00;;;;;;4920728;29;20508;-90
2021/01/15 06:13:51;;;;;;;33.57;21.20;;;0.30;1.00;;;;;;4921263;29;20472;-90
2021/01/15 06:16:21;;;;;;;30.20;20.17;;;0.20;1.00;;;;;;4921142;29;20501;-90
2021/01/15 06:19:01;;;;;;;30.73;20.80;;;0.20;1.00;;;;;;4921666;29;20565;-90
2021/01/15 06:21:36;;;;;;;32.17;21.00;;;0.20;1.00;;;;;;4921419;29;20572;-90
2021/01/15 06:24:08;;;;;;;30.53;21.07;;;0.20;1.00;;;;;;4921082;29;20480;-90
2021/01/15 06:26:38;;;;;;;31.67;21.87;;;0.20;1.00;;;;;;4920342;29;20536;-90
2021/01/15 06:29:10;;;;;;;33.20;21.10;;;0.10;1.00;;;;;;4921055;29;20473;-90
2021/01/15 06:31:53;;;;;;;33.67;22.63;;;0.10;38.80;;;;;;4921095;29;20479;-90
2021/01/15 06:34:21;;;;;;;34.77;21.57;;;0.20;73.20;;;;;;4904163;29;20460;-90
2021/01/15 06:36:50;;;;;;;31.37;21.10;;;0.20;78.60;;;;;;4914572;29;20591;-90
2021/01/15 06:39:20;;;;;;;35.33;23.43;;;0.10;99.90;;;;;;4903964;29;20482;-90
2021/01/15 06:42:01;;;;;;;28.83;20.93;;;0.10;99.90;;;;;;4920451;29;20476;-90
2021/01/15 06:44:29;;;;;;;33.27;22.87;;;0.10;99.90;;;;;;4921104;29;20563;-90
2021/01/15 06:47:12;;;;;;;34.07;22.57;;;0.20;99.90;;;;;;4920777;29;20551;-90
2021/01/15 06:49:47;;;;;;;37.20;24.10;;;0.30;99.90;;;;;;4920848;29;20507;-90
2021/01/15 06:52:25;;;;;;;32.40;21.97;;;0.20;99.90;;;;;;4920995;29;20504;-90
2021/01/15 06:54:54;;;;;;;32.57;21.87;;;0.20;99.90;;;;;;4921078;29;20481;-90
2021/01/15 06:57:31;;;;;;;30.47;21.17;;;0.20;99.90;;;;;;4921259;29;20943;-90
2021/01/15 07:00:02;;;;;;;34.47;22.23;;;0.20;99.90;;;;;;4903925;29;20460;-90
2021/01/15 07:02:55;;;;;;;31.37;21.93;;;0.20;99.90;;;;;;4920597;29;20444;-90
2021/01/15 07:05:27;;;;;;;37.77;23.77;;;0.20;99.90;;;;;;4921484;29;20481;-90
2021/01/15 07:07:56;;;;;;;29.90;22.03;;;0.10;99.90;;;;;;4920718;29;20568;-90
2021/01/15 07:10:24;;;;;;;34.73;22.10;;;0.10;99.90;;;;;;4920162;29;20443;-90
2021/01/15 07:12:57;;;;;;;35.30;21.90;;;0.10;99.90;;;;;;4920368;29;20454;-89
2021/01/15 07:15:33;;;;;;;30.40;21.37;;;0.10;99.90;;;;;;4921146;29;20798;-90
2021/01/15 07:18:07;;;;;;;36.30;22.43;;;0.00;99.90;;;;;;4920548;29;20559;-90
2021/01/15 07:20:44;;;;;;;31.47;21.17;;;0.10;99.90;;;;;;4920515;29;20476;-90
2021/01/15 07:23:17;;;;;;;30.83;21.53;;;0.10;99.90;;;;;;4924142;29;20477;-90
2021/01/15 07:25:50;;;;;;;29.87;22.10;;;0.10;99.90;;;;;;4923961;29;20485;-90
2021/01/15 07:28:24;;;;;;;31.53;21.60;;;0.10;99.90;;;;;;4924394;29;20469;-90
2021/01/15 07:30:52;;;;;;;31.20;21.80;;;0.10;99.90;;;;;;4923590;29;20480;-89
2021/01/15 07:33:20;;;;;;;33.93;23.60;;;0.10;99.90;;;;;;4923672;29;20969;-90
2021/01/15 07:35:48;;;;;;;36.20;25.10;;;0.00;99.90;;;;;;4907078;29;20443;-90
2021/01/15 07:38:16;;;;;;;39.00;23.23;;;0.10;99.90;;;;;;4924132;29;20494;-90
2021/01/15 07:40:44;;;;;;;34.77;23.10;;;0.00;99.90;;;;;;4923225;29;20488;-89
2021/01/15 07:43:28;;;;;;;41.40;26.07;;;0.00;99.90;;;;;;4923766;29;20477;-89
2021/01/15 07:45:57;;;;;;;35.97;22.73;;;0.00;99.90;;;;;;4923711;29;20489;-89
2021/01/15 07:48:24;;;;;;;39.83;25.23;;;0.10;99.90;;;;;;4923629;29;20547;-89
2021/01/15 07:50:52;;;;;;;32.90;23.73;;;0.00;99.90;;;;;;4923086;29;20463;-89
2021/01/15 07:53:43;;;;;;;39.80;23.90;;;0.00;99.90;;;;;;4923575;29;20591;-89
2021/01/15 07:56:11;;;;;;;36.40;24.10;;;0.00;99.90;;;;;;4922899;29;20873;-91
2021/01/15 07:58:48;;;;;;;34.03;23.40;;;0.10;99.90;;;;;;4923861;29;20770;-91
2021/01/15 08:01:17;;;;;;;35.50;22.20;;;0.10;99.90;;;;;;4923266;29;20488;-91
2021/01/15 08:03:52;;;;;;;40.57;25.77;;;0.20;99.90;;;;;;4923517;29;20464;-91
2021/01/15 08:06:21;;;;;;;39.17;24.30;;;0.20;99.90;;;;;;4923424;29;20475;-91
2021/01/15 08:08:58;;;;;;;36.27;22.60;;;0.20;99.90;;;;;;4923133;29;20462;-91
2021/01/15 08:11:25;;;;;;;36.87;23.47;;;0.20;99.90;;;;;;4922760;29;20458;-91
2021/01/15 08:14:11;;;;;;;37.57;23.27;;;0.20;99.90;;;;;;4923310;29;20524;-91
2021/01/15 08:16:43;;;;;;;37.60;23.67;;;0.30;99.90;;;;;;4922950;29;20973;-91
2021/01/15 08:19:11;;;;;;;41.57;25.37;;;0.30;99.90;;;;;;4923024;29;20447;-92
2021/01/15 08:21:38;;;;;;;41.23;24.00;;;0.30;99.90;;;;;;4923157;29;20891;-91
2021/01/15 08:24:06;;;;;;;38.73;23.80;;;0.20;99.90;;;;;;4922766;29;20449;-91
2021/01/15 08:26:45;;;;;;;39.80;23.87;;;0.20;99.90;;;;;;4907651;29;20819;-92
2021/01/15 08:29:16;;;;;;;41.10;23.77;;;0.20;99.90;;;;;;4903923;29;20929;-92
2021/01/15 08:31:47;;;;;;;37.10;23.70;;;0.20;99.90;;;;;;4918162;29;20523;-92
2021/01/15 08:34:16;;;;;;;40.90;24.90;;;0.30;99.90;;;;;;4922908;29;20477;-92
2021/01/15 08:36:47;;;;;;;36.10;23.07;;;0.30;99.90;;;;;;4922610;29;20750;-91
2021/01/15 08:39:17;;;;;;;35.60;23.63;;;0.30;99.90;;;;;;4922241;29;20535;-92
2021/01/15 08:41:56;;;;;;;46.23;25.47;;;0.30;99.90;;;;;;4922544;29;20488;-91
2021/01/15 08:44:24;;;;;;;35.77;24.20;;;0.40;99.90;;;;;;4922781;29;20458;-89
2021/01/15 08:47:24;;;;;;;33.10;22.13;;;0.50;99.90;;;;;;4922476;29;20484;-89
2021/01/15 08:49:59;;;;;;;32.57;22.10;;;0.40;99.90;;;;;;4846025;29;20473;-89
2021/01/15 08:52:30;;;;;;;36.53;23.50;;;0.40;99.90;;;;;;4909866;29;20484;-89
2021/01/15 08:55:06;;;;;;;33.93;23.90;;;0.50;99.90;;;;;;4922951;29;20473;-89
2021/01/15 08:58:06;;;;;;;39.93;24.20;;;0.50;98.60;;;;;;4922125;29;20556;-88
2021/01/15 09:00:38;;;;;;;36.80;23.30;;;0.50;81.10;;;;;;4917735;29;20477;-89
2021/01/15 09:03:05;;;;;;;35.93;24.07;;;0.60;93.90;;;;;;4922168;29;20561;-89
2021/01/15 09:05:51;;;;;;;36.37;24.27;;;0.70;54.40;;;;;;4922083;29;20888;-89
2021/01/15 09:08:22;;;;;;;38.80;25.13;;;0.60;1.00;;;;;;4922234;29;20468;-90
2021/01/15 09:10:52;;;;;;;46.03;26.30;;;0.60;1.00;;;;;;4921259;29;20478;-89
2021/01/15 09:13:45;;;;;;;43.17;26.03;;;0.60;1.00;;;;;;4921868;29;20503;-89
2021/01/15 09:19:07;;;;;;;47.47;27.60;;;0.70;1.00;;;;;;4921470;29;20504;-89
2021/01/15 09:21:45;;;;;;;44.90;26.07;;;0.50;1.00;;;;;;4922227;29;20532;-89
2021/01/15 09:24:12;;;;;;;48.80;28.67;;;0.50;1.00;;;;;;4922140;29;20479;-90
2021/01/15 09:26:39;;;;;;;47.57;28.37;;;0.50;18.00;;;;;;4919088;29;20508;-90
2021/01/15 09:29:40;;;;;;;47.70;29.33;;;0.60;29.50;;;;;;4921304;29;20453;-90
2021/01/15 09:32:14;;;;;;;53.97;30.00;;;0.60;37.60;;;;;;4902234;29;20450;-90
2021/01/15 09:34:41;;;;;;;53.20;30.20;;;0.50;8.40;;;;;;4885544;29;20533;-90
2021/01/15 09:37:09;;;;;;;55.20;33.07;;;0.50;5.70;;;;;;4913559;29;20490;-90
2021/01/15 09:39:52;;;;;;;59.97;32.30;;;0.70;92.00;;;;;;4921211;29;20476;-90
2021/01/15 09:42:32;;;;;;;51.53;33.30;;;0.80;14.30;;;;;;4905855;29;20507;-90
2021/01/15 09:44:58;;;;;;;52.47;31.00;;;0.90;1.00;;;;;;4902180;29;20482;-90
2021/01/15 09:47:30;;;;;;;54.07;31.77;;;1.00;1.00;;;;;;4902620;29;20507;-90
2021/01/15 09:49:58;;;;;;;50.13;29.67;;;1.30;1.00;;;;;;4902910;29;20488;-90
2021/01/15 09:52:27;;;;;;;47.73;28.10;;;1.60;1.00;;;;;;4902736;29;20843;-90
2021/01/15 09:54:55;;;;;;;48.90;28.30;;;1.90;99.90;;;;;;4902568;29;20483;-91
2021/01/15 09:57:24;;;;;;;39.03;25.70;;;2.30;99.90;;;;;;4901975;29;20465;-90
2021/01/15 09:59:54;;;;;;;35.87;24.50;;;2.20;1.00;;;;;;4902231;29;20488;-90
2021/01/15 10:02:31;;;;;;;34.13;22.90;;;2.00;99.90;;;;;;4901048;29;20465;-90
2021/01/15 10:05:09;;;;;;;39.33;24.60;;;1.70;93.20;;;;;;4899102;29;20936;-90
2021/01/15 10:07:47;;;;;;;34.90;22.97;;;1.70;99.90;;;;;;4901692;29;20561;-90
2021/01/15 10:10:17;;;;;;;34.60;23.80;;;1.70;1.00;;;;;;4902431;29;20460;-90
2021/01/15 10:12:52;;;;;;;38.50;24.73;;;1.60;1.00;;;;;;4900943;29;20807;-90
2021/01/15 10:15:22;;;;;;;36.17;23.80;;;1.50;99.90;;;;;;4901897;29;20478;-90
2021/01/15 10:17:51;;;;;;;32.63;23.80;;;1.50;1.00;;;;;;4900826;29;20502;-90
2021/01/15 10:20:30;;;;;;;38.90;21.57;;;1.30;89.80;;;;;;4902295;29;20499;-90
2021/01/15 10:31:23;;;;;;;31.10;21.33;;;1.10;1.00;;;;;;4919111;28;20947;-90
2021/01/15 10:33:54;;;;;;;28.53;19.77;;;1.30;82.60;;;;;;4920415;29;20478;-90
2021/01/15 10:36:25;;;;;;;29.60;20.87;;;1.20;99.90;;;;;;4920392;29;20514;-90
2021/01/15 10:39:01;;;;;;;27.37;19.43;;;1.10;1.00;;;;;;4920621;29;20503;-90
2021/01/15 10:44:40;;;;;;;28.50;20.53;;;1.20;1.00;;;;;;4902442;29;20466;-90
2021/01/15 10:47:14;;;;;;;27.93;19.63;;;1.30;99.90;;;;;;4927539;29;20962;-90
2021/01/15 10:49:44;;;;;;;26.00;18.97;;;1.20;1.00;;;;;;4922337;29;20513;-90
2021/01/15 10:52:22;;;;;;;27.00;20.40;;;1.20;99.90;;;;;;4939725;29;20924;-90
2021/01/15 10:54:52;;;;;;;28.23;19.70;;;1.10;99.90;;;;;;4933201;29;20479;-90
2021/01/15 10:57:18;;;;;;;26.23;18.93;;;1.20;99.90;;;;;;4924184;29;20502;-90
2021/01/15 10:59:45;;;;;;;27.10;17.67;;;1.20;1.00;;;;;;4924344;29;20450;-90
2021/01/15 11:02:16;;;;;;;29.53;19.07;;;1.20;1.00;;;;;;4924773;29;20480;-90
2021/01/15 11:04:43;;;;;;;28.20;18.30;;;1.30;1.00;;;;;;4941968;29;20455;-90
2021/01/15 11:07:25;;;;;;;25.73;18.13;;;1.30;99.90;;;;;;4943544;29;20905;-90
2021/01/15 11:09:52;;;;;;;23.47;17.40;;;1.40;99.90;;;;;;4942728;29;20484;-91
2021/01/15 11:12:25;;;;;;;22.80;16.63;;;1.50;99.90;;;;;;4942931;29;20487;-90
2021/01/15 11:14:52;;;;;;;23.00;17.57;;;1.60;1.00;;;;;;4943588;29;20475;-90
2021/01/15 11:17:19;;;;;;;23.07;16.57;;;1.60;99.90;;;;;;4943411;29;20786;-90
2021/01/15 11:20:01;;;;;;;24.47;17.57;;;1.70;1.00;;;;;;4940413;29;20470;-90
2021/01/15 11:22:28;;;;;;;20.87;14.33;;;1.70;99.90;;;;;;4923770;29;20474;-90
2021/01/15 11:25:16;;;;;;;17.90;13.90;;;1.70;71.40;;;;;;4921348;29;20464;-90
2021/01/15 11:27:51;;;;;;;18.63;14.07;;;1.70;99.90;;;;;;4900520;29;20473;-90
2021/01/15 11:30:34;;;;;;;18.33;14.57;;;1.60;99.90;;;;;;4904776;29;20492;-90
2021/01/15 11:33:06;;;;;;;19.20;14.00;;;1.70;99.90;;;;;;4904549;29;20936;-90
2021/01/15 11:35:54;;;;;;;21.47;14.63;;;1.50;99.90;;;;;;4904793;29;20573;-89
2021/01/15 11:41:14;;;;;;;21.07;14.07;;;1.50;99.90;;;;;;4903502;29;20816;-90
2021/01/15 11:43:58;;;;;;;19.93;13.40;;;1.60;99.90;;;;;;4905375;29;20493;-90
2021/01/15 11:46:25;;;;;;;21.40;15.10;;;1.60;99.90;;;;;;4904481;29;20494;-90
2021/01/15 11:49:21;;;;;;;21.57;15.70;;;1.70;99.90;;;;;;4905020;29;20487;-91
2021/01/15 12:34:37;;;;;;;22.00;13.60;;;2.20;1.00;;;;;;4940322;28;20503;-91
2021/01/15 12:37:07;;;;;;;16.60;13.40;;;2.00;1.00;;;;;;4941577;29;20457;-91
2021/01/15 12:39:34;;;;;;;20.13;14.40;;;1.80;1.00;;;;;;4941890;29;20475;-91
2021/01/15 12:42:02;;;;;;;19.37;13.57;;;1.70;1.00;;;;;;4941324;29;20534;-91
2021/01/15 12:44:29;;;;;;;22.10;13.77;;;1.80;7.60;;;;;;4941732;29;20512;-91
2021/01/15 12:46:56;;;;;;;17.20;12.60;;;1.70;53.70;;;;;;4941681;29;20456;-91
2021/01/15 12:49:23;;;;;;;17.83;12.30;;;1.50;90.50;;;;;;4942033;29;20499;-91
2021/01/15 12:51:51;;;;;;;18.60;12.57;;;1.40;99.90;;;;;;4941829;29;20475;-91
2021/01/15 12:54:18;;;;;;;19.87;13.50;;;1.50;99.90;;;;;;4941434;29;20481;-91
2021/01/15 12:56:44;;;;;;;18.00;13.30;;;1.50;99.90;;;;;;4941154;29;20473;-91
2021/01/15 12:59:11;;;;;;;22.60;13.97;;;1.50;99.90;;;;;;4940995;29;20501;-91
2021/01/15 13:01:39;;;;;;;18.13;14.03;;;1.40;99.90;;;;;;4941227;29;20462;-91
2021/01/15 13:04:06;;;;;;;22.97;13.67;;;1.40;99.90;;;;;;4941428;29;20480;-91
2021/01/15 13:06:38;;;;;;;18.67;13.90;;;1.50;99.90;;;;;;4940953;29;20923;-91
2021/01/15 13:09:07;;;;;;;23.70;13.23;;;1.50;99.90;;;;;;4940401;29;20468;-91
2021/01/15 13:11:35;;;;;;;18.37;13.50;;;1.50;99.90;;;;;;4941214;29;20474;-91
2021/01/15 13:14:02;;;;;;;21.47;14.70;;;1.50;99.90;;;;;;4941301;29;20473;-91
2021/01/15 13:16:33;;;;;;;22.77;13.57;;;1.50;99.90;;;;;;4941089;29;20536;-91
2021/01/15 13:19:00;;;;;;;22.57;14.30;;;1.40;99.90;;;;;;4941677;29;20793;-91
2021/01/15 13:21:27;;;;;;;20.50;14.10;;;1.50;99.90;;;;;;4941077;29;20475;-91
2021/01/15 13:23:54;;;;;;;21.80;15.13;;;1.50;99.90;;;;;;4941296;29;20528;-91
2021/01/15 13:26:21;;;;;;;20.30;12.10;;;1.40;99.90;;;;;;4926987;29;20939;-91
2021/01/15 13:28:48;;;;;;;21.70;14.90;;;1.30;99.90;;;;;;4922240;29;20776;-91
2021/01/15 13:31:15;;;;;;;28.80;15.80;;;1.40;1.00;;;;;;4921784;29;20478;-91
2021/01/15 13:33:43;;;;;;;15.63;11.87;;;1.40;1.00;;;;;;4921847;29;20564;-91
2021/01/15 13:36:11;;;;;;;19.47;12.40;;;1.30;1.00;;;;;;4921808;29;20501;-91
2021/01/15 13:38:37;;;;;;;15.03;11.70;;;1.30;1.00;;;;;;4921538;29;20787;-91
2021/01/15 13:41:04;;;;;;;18.50;11.80;;;1.20;99.90;;;;;;4921605;29;20848;-90
2021/01/15 13:43:45;;;;;;;17.47;13.13;;;1.10;99.90;;;;;;4921684;29;20591;-91
2021/01/15 13:46:36;;;;;;;22.87;14.30;;;1.10;99.90;;;;;;4921870;29;20514;-91
2021/01/15 13:49:50;;;;;;;22.83;13.17;;;1.10;1.00;;;;;;4917083;29;20765;-90
2021/01/15 13:52:25;;;;;;;20.73;13.80;;;1.10;1.00;;;;;;4895868;29;20472;-91
2021/01/15 13:54:52;;;;;;;21.90;14.40;;;1.10;1.00;;;;;;4926394;29;20851;-91
2021/01/15 14:00:03;;;;;;;34.23;22.10;;;1.10;1.00;;;;;;4903523;29;20808;-91
2021/01/15 14:02:30;;;;;;;55.27;31.17;;;1.10;19.30;;;;;;4933600;29;20571;-91
2021/01/15 14:05:01;;;;;;;26.90;19.17;;;1.10;1.00;;;;;;4940315;29;20450;-91
2021/01/15 14:07:30;;;;;;;34.87;22.90;;;1.10;1.00;;;;;;4940801;29;20488;-91
2021/01/15 14:09:57;;;;;;;35.70;24.47;;;1.10;1.00;;;;;;4939447;29;20446;-91
2021/01/15 14:12:24;;;;;;;23.63;16.83;;;1.00;99.90;;;;;;4940295;29;20506;-91
2021/01/15 14:15:07;;;;;;;22.37;16.00;;;1.00;1.00;;;;;;4940328;29;20564;-91
2021/01/15 14:17:39;;;;;;;22.33;15.20;;;1.00;99.90;;;;;;4940478;29;20499;-92
2021/01/15 14:20:08;;;;;;;22.57;14.73;;;0.90;1.00;;;;;;4940327;29;20452;-91
2021/01/15 14:22:36;;;;;;;20.27;14.70;;;0.90;99.90;;;;;;4940212;29;20538;-91
2021/01/15 14:25:40;;;;;;;25.93;16.20;;;0.80;1.00;;;;;;4936188;29;20469;-91
2021/01/15 14:28:07;;;;;;;20.27;14.77;;;0.80;99.90;;;;;;4917757;29;20493;-91
2021/01/15 14:30:35;;;;;;;22.33;14.97;;;0.70;1.00;;;;;;4924652;29;20476;-91